sensor_id;sensor_type;location;lat;lon;timestamp;P1;durP1;ratioP1;P2;durP2;ratioP2
68976;SDS011;56029;52.568;13.588;2022-08-20T00:00:29;28.65;;;18.80;;
68976;SDS011;56029;52.568;13.588;2022-08-20T00:03:06;27.33;;;18.75;;
68976;SDS011;56029;52.568;13.588;2022-08-20T00:05:38;31.83;;;20.33;;
68976;SDS011;56029;52.568;13.588;2022-08-20T00:08:07;30.57;;;19.80;;
68976;SDS011;56029;52.568;13.588;2022-08-20T00:10:35;29.88;;;19.25;;
68976;SDS011;56029;52.568;13.588;2022-08-20T00:13:03;31.45;;;19.52;;
68976;SDS011;56029;52.568;13.588;2022-08-20T00:15:32;32.72;;;20.25;;
68976;SDS011;56029;52.568;13.588;2022-08-20T00:18:00;33.13;;;20.30;;
68976;SDS011;56029;52.568;13.588;2022-08-20T00:20:27;30.67;;;20.30;;
68976;SDS011;56029;52.568;13.588;2022-08-20T00:22:55;31.90;;;20.30;;
68976;SDS011;56029;52.568;13.588;2022-08-20T00:25:22;31.60;;;19.67;;
68976;SDS011;56029;52.568;13.588;2022-08-20T00:27:49;28.85;;;18.55;;
68976;SDS011;56029;52.568;13.588;2022-08-20T00:30:14;25.90;;;16.70;;
68976;SDS011;56029;52.568;13.588;2022-08-20T00:32:49;25.27;;;16.48;;
68976;SDS011;56029;52.568;13.588;2022-08-20T00:35:18;22.77;;;15.13;;
68976;SDS011;56029;52.568;13.588;2022-08-20T00:37:46;20.35;;;14.55;;
68976;SDS011;56029;52.568;13.588;2022-08-20T00:40:13;22.53;;;14.73;;
68976;SDS011;56029;52.568;13.588;2022-08-20T00:42:41;23.58;;;15.07;;
68976;SDS011;56029;52.568;13.588;2022-08-20T00:45:08;23.67;;;15.45;;
68976;SDS011;56029;52.568;13.588;2022-08-20T00:47:35;20.17;;;14.00;;
68976;SDS011;56029;52.568;13.588;2022-08-20T00:50:04;19.63;;;13.15;;
68976;SDS011;56029;52.568;13.588;2022-08-20T00:52:31;18.60;;;12.30;;
68976;SDS011;56029;52.568;13.588;2022-08-20T00:54:57;19.55;;;12.90;;
68976;SDS011;56029;52.568;13.588;2022-08-20T00:57:27;18.03;;;13.33;;
68976;SDS011;56029;52.568;13.588;2022-08-20T00:59:58;20.80;;;14.27;;
68976;SDS011;56029;52.568;13.588;2022-08-20T01:02:28;21.95;;;14.93;;
68976;SDS011;56029;52.568;13.588;2022-08-20T01:04:56;23.33;;;15.63;;
68976;SDS011;56029;52.568;13.588;2022-08-20T01:07:23;24.27;;;15.63;;
68976;SDS011;56029;52.568;13.588;2022-08-20T01:10:05;25.52;;;16.80;;
68976;SDS011;56029;52.568;13.588;2022-08-20T01:12:44;28.40;;;17.58;;
68976;SDS011;56029;52.568;13.588;2022-08-20T01:15:13;25.38;;;16.25;;
68976;SDS011;56029;52.568;13.588;2022-08-20T01:17:46;28.13;;;17.65;;
68976;SDS011;56029;52.568;13.588;2022-08-20T01:20:15;27.57;;;17.27;;
68976;SDS011;56029;52.568;13.588;2022-08-20T01:28:31;30.23;;;18.60;;
68976;SDS011;56029;52.568;13.588;2022-08-20T01:31:01;31.00;;;18.50;;
68976;SDS011;56029;52.568;13.588;2022-08-20T01:33:27;31.57;;;18.90;;
68976;SDS011;56029;52.568;13.588;2022-08-20T01:35:53;33.17;;;19.40;;
68976;SDS011;56029;52.568;13.588;2022-08-20T01:38:19;33.95;;;19.48;;
68976;SDS011;56029;52.568;13.588;2022-08-20T01:43:37;37.53;;;20.30;;
68976;SDS011;56029;52.568;13.588;2022-08-20T01:46:04;46.67;;;24.52;;
68976;SDS011;56029;52.568;13.588;2022-08-20T01:48:30;48.40;;;23.83;;
68976;SDS011;56029;52.568;13.588;2022-08-20T01:51:03;51.97;;;25.48;;
68976;SDS011;56029;52.568;13.588;2022-08-20T01:53:33;50.25;;;24.98;;
68976;SDS011;56029;52.568;13.588;2022-08-20T01:56:04;52.95;;;24.52;;
68976;SDS011;56029;52.568;13.588;2022-08-20T01:58:32;54.38;;;25.35;;
68976;SDS011;56029;52.568;13.588;2022-08-20T02:00:58;49.70;;;25.00;;
68976;SDS011;56029;52.568;13.588;2022-08-20T02:03:24;50.55;;;25.88;;
68976;SDS011;56029;52.568;13.588;2022-08-20T02:05:51;53.70;;;26.15;;
68976;SDS011;56029;52.568;13.588;2022-08-20T02:08:18;49.63;;;25.38;;
68976;SDS011;56029;52.568;13.588;2022-08-20T02:10:46;51.00;;;25.27;;
68976;SDS011;56029;52.568;13.588;2022-08-20T02:13:12;52.47;;;25.40;;
68976;SDS011;56029;52.568;13.588;2022-08-20T02:15:38;52.65;;;25.58;;
68976;SDS011;56029;52.568;13.588;2022-08-20T02:18:05;50.10;;;25.55;;
68976;SDS011;56029;52.568;13.588;2022-08-20T02:20:31;52.10;;;25.73;;
68976;SDS011;56029;52.568;13.588;2022-08-20T02:22:57;47.50;;;25.27;;
68976;SDS011;56029;52.568;13.588;2022-08-20T02:25:26;46.42;;;24.85;;
68976;SDS011;56029;52.568;13.588;2022-08-20T02:27:54;48.00;;;24.45;;
68976;SDS011;56029;52.568;13.588;2022-08-20T02:30:22;44.73;;;22.90;;
68976;SDS011;56029;52.568;13.588;2022-08-20T02:32:52;46.97;;;24.00;;
68976;SDS011;56029;52.568;13.588;2022-08-20T02:35:17;40.95;;;22.50;;
68976;SDS011;56029;52.568;13.588;2022-08-20T02:37:43;39.17;;;21.80;;
68976;SDS011;56029;52.568;13.588;2022-08-20T02:40:13;41.58;;;23.77;;
68976;SDS011;56029;52.568;13.588;2022-08-20T02:42:41;42.05;;;23.05;;
68976;SDS011;56029;52.568;13.588;2022-08-20T02:45:08;38.43;;;21.30;;
68976;SDS011;56029;52.568;13.588;2022-08-20T02:47:36;39.40;;;22.33;;
68976;SDS011;56029;52.568;13.588;2022-08-20T02:50:03;38.53;;;22.20;;
68976;SDS011;56029;52.568;13.588;2022-08-20T02:52:29;39.55;;;21.65;;
68976;SDS011;56029;52.568;13.588;2022-08-20T02:54:55;38.77;;;21.97;;
68976;SDS011;56029;52.568;13.588;2022-08-20T02:57:20;35.50;;;21.27;;
68976;SDS011;56029;52.568;13.588;2022-08-20T02:59:46;35.83;;;20.13;;
68976;SDS011;56029;52.568;13.588;2022-08-20T03:02:13;32.30;;;19.35;;
68976;SDS011;56029;52.568;13.588;2022-08-20T03:04:40;29.47;;;18.57;;
68976;SDS011;56029;52.568;13.588;2022-08-20T03:07:07;29.08;;;17.50;;
68976;SDS011;56029;52.568;13.588;2022-08-20T03:09:34;28.42;;;17.67;;
68976;SDS011;56029;52.568;13.588;2022-08-20T03:12:00;28.23;;;17.85;;
68976;SDS011;56029;52.568;13.588;2022-08-20T03:14:27;28.13;;;17.43;;
68976;SDS011;56029;52.568;13.588;2022-08-20T03:16:53;29.80;;;17.85;;
68976;SDS011;56029;52.568;13.588;2022-08-20T03:19:18;33.63;;;19.73;;
68976;SDS011;56029;52.568;13.588;2022-08-20T03:21:44;34.47;;;20.27;;
68976;SDS011;56029;52.568;13.588;2022-08-20T03:24:10;31.85;;;18.55;;
68976;SDS011;56029;52.568;13.588;2022-08-20T03:26:35;33.87;;;19.83;;
68976;SDS011;56029;52.568;13.588;2022-08-20T03:29:01;34.22;;;18.48;;
68976;SDS011;56029;52.568;13.588;2022-08-20T03:31:27;32.70;;;18.75;;
68976;SDS011;56029;52.568;13.588;2022-08-20T03:33:54;34.83;;;19.27;;
68976;SDS011;56029;52.568;13.588;2022-08-20T03:36:20;35.85;;;20.00;;
68976;SDS011;56029;52.568;13.588;2022-08-20T03:38:46;36.42;;;19.65;;
68976;SDS011;56029;52.568;13.588;2022-08-20T03:41:12;39.30;;;20.63;;
68976;SDS011;56029;52.568;13.588;2022-08-20T03:43:37;38.77;;;20.87;;
68976;SDS011;56029;52.568;13.588;2022-08-20T03:46:05;39.25;;;20.75;;
68976;SDS011;56029;52.568;13.588;2022-08-20T03:48:30;36.73;;;19.90;;
68976;SDS011;56029;52.568;13.588;2022-08-20T03:50:56;40.17;;;20.63;;
68976;SDS011;56029;52.568;13.588;2022-08-20T03:53:25;35.63;;;19.15;;
68976;SDS011;56029;52.568;13.588;2022-08-20T03:55:54;40.15;;;20.80;;
68976;SDS011;56029;52.568;13.588;2022-08-20T03:58:20;40.07;;;21.30;;
68976;SDS011;56029;52.568;13.588;2022-08-20T04:00:48;40.40;;;20.50;;
68976;SDS011;56029;52.568;13.588;2022-08-20T04:03:15;39.90;;;20.60;;
68976;SDS011;56029;52.568;13.588;2022-08-20T04:05:41;40.10;;;21.08;;
68976;SDS011;56029;52.568;13.588;2022-08-20T04:08:12;37.58;;;20.73;;
68976;SDS011;56029;52.568;13.588;2022-08-20T04:10:40;37.67;;;19.93;;
68976;SDS011;56029;52.568;13.588;2022-08-20T04:13:06;39.38;;;20.60;;
68976;SDS011;56029;52.568;13.588;2022-08-20T04:15:33;37.38;;;19.98;;
68976;SDS011;56029;52.568;13.588;2022-08-20T04:18:01;34.10;;;19.38;;
68976;SDS011;56029;52.568;13.588;2022-08-20T04:20:30;35.22;;;19.17;;
68976;SDS011;56029;52.568;13.588;2022-08-20T04:22:56;34.90;;;19.43;;
68976;SDS011;56029;52.568;13.588;2022-08-20T04:25:22;33.97;;;19.03;;
68976;SDS011;56029;52.568;13.588;2022-08-20T04:27:48;35.60;;;19.98;;
68976;SDS011;56029;52.568;13.588;2022-08-20T04:30:15;34.05;;;20.13;;
68976;SDS011;56029;52.568;13.588;2022-08-20T04:32:42;33.88;;;19.23;;
68976;SDS011;56029;52.568;13.588;2022-08-20T04:35:09;32.58;;;19.23;;
68976;SDS011;56029;52.568;13.588;2022-08-20T04:37:38;31.03;;;18.17;;
68976;SDS011;56029;52.568;13.588;2022-08-20T04:40:05;31.98;;;18.48;;
68976;SDS011;56029;52.568;13.588;2022-08-20T04:42:52;37.60;;;20.25;;
68976;SDS011;56029;52.568;13.588;2022-08-20T04:45:17;35.27;;;19.67;;
68976;SDS011;56029;52.568;13.588;2022-08-20T04:47:43;36.80;;;20.33;;
68976;SDS011;56029;52.568;13.588;2022-08-20T04:50:10;35.50;;;19.98;;
68976;SDS011;56029;52.568;13.588;2022-08-20T04:52:37;34.80;;;20.10;;
68976;SDS011;56029;52.568;13.588;2022-08-20T04:55:03;34.38;;;19.77;;
68976;SDS011;56029;52.568;13.588;2022-08-20T04:57:30;36.70;;;21.27;;
68976;SDS011;56029;52.568;13.588;2022-08-20T04:59:56;36.40;;;21.77;;
68976;SDS011;56029;52.568;13.588;2022-08-20T05:02:22;36.03;;;21.30;;
68976;SDS011;56029;52.568;13.588;2022-08-20T05:04:48;36.08;;;20.80;;
68976;SDS011;56029;52.568;13.588;2022-08-20T05:07:14;37.10;;;22.40;;
68976;SDS011;56029;52.568;13.588;2022-08-20T05:09:43;33.60;;;20.42;;
68976;SDS011;56029;52.568;13.588;2022-08-20T05:12:09;33.75;;;20.35;;
68976;SDS011;56029;52.568;13.588;2022-08-20T05:14:36;33.38;;;20.10;;
68976;SDS011;56029;52.568;13.588;2022-08-20T05:17:02;37.80;;;21.20;;
68976;SDS011;56029;52.568;13.588;2022-08-20T05:19:30;35.90;;;21.67;;
68976;SDS011;56029;52.568;13.588;2022-08-20T05:21:57;36.05;;;20.90;;
68976;SDS011;56029;52.568;13.588;2022-08-20T05:24:22;37.70;;;22.47;;
68976;SDS011;56029;52.568;13.588;2022-08-20T05:26:48;37.45;;;21.48;;
68976;SDS011;56029;52.568;13.588;2022-08-20T05:29:14;34.17;;;20.13;;
68976;SDS011;56029;52.568;13.588;2022-08-20T05:31:40;36.78;;;21.00;;
68976;SDS011;56029;52.568;13.588;2022-08-20T05:34:07;36.28;;;21.27;;
68976;SDS011;56029;52.568;13.588;2022-08-20T05:36:34;34.03;;;19.77;;
68976;SDS011;56029;52.568;13.588;2022-08-20T05:39:00;35.00;;;21.08;;
68976;SDS011;56029;52.568;13.588;2022-08-20T05:41:26;35.00;;;21.05;;
68976;SDS011;56029;52.568;13.588;2022-08-20T05:43:53;35.50;;;21.40;;
68976;SDS011;56029;52.568;13.588;2022-08-20T05:46:19;33.37;;;20.50;;
68976;SDS011;56029;52.568;13.588;2022-08-20T05:48:45;34.70;;;21.15;;
68976;SDS011;56029;52.568;13.588;2022-08-20T05:51:11;34.93;;;21.03;;
68976;SDS011;56029;52.568;13.588;2022-08-20T05:53:36;37.03;;;21.45;;
68976;SDS011;56029;52.568;13.588;2022-08-20T05:56:02;34.83;;;20.70;;
68976;SDS011;56029;52.568;13.588;2022-08-20T05:58:28;35.05;;;21.75;;
68976;SDS011;56029;52.568;13.588;2022-08-20T06:00:55;33.22;;;20.73;;
68976;SDS011;56029;52.568;13.588;2022-08-20T06:03:21;32.13;;;19.87;;
68976;SDS011;56029;52.568;13.588;2022-08-20T06:06:05;31.50;;;19.58;;
68976;SDS011;56029;52.568;13.588;2022-08-20T06:08:31;33.00;;;20.50;;
68976;SDS011;56029;52.568;13.588;2022-08-20T06:10:57;33.43;;;20.77;;
68976;SDS011;56029;52.568;13.588;2022-08-20T06:13:22;32.53;;;20.07;;
68976;SDS011;56029;52.568;13.588;2022-08-20T06:15:48;33.03;;;20.83;;
68976;SDS011;56029;52.568;13.588;2022-08-20T06:18:14;34.77;;;20.00;;
68976;SDS011;56029;52.568;13.588;2022-08-20T06:20:40;30.88;;;19.45;;
68976;SDS011;56029;52.568;13.588;2022-08-20T06:23:05;31.00;;;20.35;;
68976;SDS011;56029;52.568;13.588;2022-08-20T06:25:31;31.60;;;20.10;;
68976;SDS011;56029;52.568;13.588;2022-08-20T06:27:59;34.60;;;21.20;;
68976;SDS011;56029;52.568;13.588;2022-08-20T06:30:27;33.38;;;21.48;;
68976;SDS011;56029;52.568;13.588;2022-08-20T06:32:52;32.93;;;20.33;;
68976;SDS011;56029;52.568;13.588;2022-08-20T06:35:18;33.53;;;21.10;;
68976;SDS011;56029;52.568;13.588;2022-08-20T06:37:43;32.27;;;19.83;;
68976;SDS011;56029;52.568;13.588;2022-08-20T06:40:10;35.47;;;21.17;;
68976;SDS011;56029;52.568;13.588;2022-08-20T06:42:37;32.42;;;20.10;;
68976;SDS011;56029;52.568;13.588;2022-08-20T06:45:09;31.05;;;20.15;;
68976;SDS011;56029;52.568;13.588;2022-08-20T06:47:38;34.10;;;20.88;;
68976;SDS011;56029;52.568;13.588;2022-08-20T06:50:06;31.92;;;20.35;;
68976;SDS011;56029;52.568;13.588;2022-08-20T06:52:33;33.80;;;20.90;;
68976;SDS011;56029;52.568;13.588;2022-08-20T06:54:59;32.13;;;20.48;;
68976;SDS011;56029;52.568;13.588;2022-08-20T06:57:24;34.73;;;21.30;;
68976;SDS011;56029;52.568;13.588;2022-08-20T06:59:53;35.08;;;21.70;;
68976;SDS011;56029;52.568;13.588;2022-08-20T07:02:19;32.43;;;20.33;;
68976;SDS011;56029;52.568;13.588;2022-08-20T07:04:44;31.55;;;19.58;;
68976;SDS011;56029;52.568;13.588;2022-08-20T07:07:16;30.93;;;19.13;;
68976;SDS011;56029;52.568;13.588;2022-08-20T07:09:43;31.52;;;19.80;;
68976;SDS011;56029;52.568;13.588;2022-08-20T07:12:09;31.33;;;19.90;;
68976;SDS011;56029;52.568;13.588;2022-08-20T07:14:35;31.38;;;19.20;;
68976;SDS011;56029;52.568;13.588;2022-08-20T07:17:04;31.70;;;20.27;;
68976;SDS011;56029;52.568;13.588;2022-08-20T07:19:31;32.22;;;20.75;;
68976;SDS011;56029;52.568;13.588;2022-08-20T07:21:57;32.00;;;20.48;;
68976;SDS011;56029;52.568;13.588;2022-08-20T07:24:23;31.37;;;20.40;;
68976;SDS011;56029;52.568;13.588;2022-08-20T07:26:49;31.05;;;20.10;;
68976;SDS011;56029;52.568;13.588;2022-08-20T07:29:17;30.27;;;19.90;;
68976;SDS011;56029;52.568;13.588;2022-08-20T07:31:43;32.65;;;20.30;;
68976;SDS011;56029;52.568;13.588;2022-08-20T07:34:27;34.80;;;21.15;;
68976;SDS011;56029;52.568;13.588;2022-08-20T07:36:57;34.35;;;22.17;;
68976;SDS011;56029;52.568;13.588;2022-08-20T07:39:24;34.80;;;22.03;;
68976;SDS011;56029;52.568;13.588;2022-08-20T07:41:50;35.53;;;22.02;;
68976;SDS011;56029;52.568;13.588;2022-08-20T07:44:27;37.22;;;23.42;;
68976;SDS011;56029;52.568;13.588;2022-08-20T07:46:54;36.22;;;22.33;;
68976;SDS011;56029;52.568;13.588;2022-08-20T07:49:22;36.23;;;22.50;;
68976;SDS011;56029;52.568;13.588;2022-08-20T07:51:47;39.65;;;23.27;;
68976;SDS011;56029;52.568;13.588;2022-08-20T07:54:13;41.83;;;24.00;;
68976;SDS011;56029;52.568;13.588;2022-08-20T07:56:38;41.23;;;24.37;;
68976;SDS011;56029;52.568;13.588;2022-08-20T07:59:04;42.87;;;25.40;;
68976;SDS011;56029;52.568;13.588;2022-08-20T08:01:30;43.65;;;25.05;;
68976;SDS011;56029;52.568;13.588;2022-08-20T08:03:57;43.97;;;26.05;;
68976;SDS011;56029;52.568;13.588;2022-08-20T08:06:24;44.28;;;25.75;;
68976;SDS011;56029;52.568;13.588;2022-08-20T08:08:50;48.63;;;26.92;;
68976;SDS011;56029;52.568;13.588;2022-08-20T08:11:16;44.87;;;25.90;;
68976;SDS011;56029;52.568;13.588;2022-08-20T08:13:43;45.70;;;25.48;;
68976;SDS011;56029;52.568;13.588;2022-08-20T08:16:10;43.60;;;25.50;;
68976;SDS011;56029;52.568;13.588;2022-08-20T08:18:40;43.97;;;24.97;;
68976;SDS011;56029;52.568;13.588;2022-08-20T08:21:10;43.95;;;25.15;;
68976;SDS011;56029;52.568;13.588;2022-08-20T08:23:37;44.00;;;24.85;;
68976;SDS011;56029;52.568;13.588;2022-08-20T08:26:09;44.03;;;25.10;;
68976;SDS011;56029;52.568;13.588;2022-08-20T08:28:39;41.83;;;24.77;;
68976;SDS011;56029;52.568;13.588;2022-08-20T08:31:07;46.58;;;26.50;;
68976;SDS011;56029;52.568;13.588;2022-08-20T08:33:33;41.22;;;24.77;;
68976;SDS011;56029;52.568;13.588;2022-08-20T08:36:00;44.33;;;24.40;;
68976;SDS011;56029;52.568;13.588;2022-08-20T08:38:37;46.20;;;25.60;;
68976;SDS011;56029;52.568;13.588;2022-08-20T08:44:03;43.53;;;24.70;;
68976;SDS011;56029;52.568;13.588;2022-08-20T08:46:34;44.97;;;25.47;;
68976;SDS011;56029;52.568;13.588;2022-08-20T08:49:04;43.05;;;24.80;;
68976;SDS011;56029;52.568;13.588;2022-08-20T08:51:36;42.78;;;25.35;;
68976;SDS011;56029;52.568;13.588;2022-08-20T08:54:06;43.13;;;24.93;;
68976;SDS011;56029;52.568;13.588;2022-08-20T08:56:32;43.85;;;25.35;;
68976;SDS011;56029;52.568;13.588;2022-08-20T08:59:05;47.25;;;27.45;;
68976;SDS011;56029;52.568;13.588;2022-08-20T09:01:34;43.83;;;25.40;;
68976;SDS011;56029;52.568;13.588;2022-08-20T09:04:07;44.75;;;26.58;;
68976;SDS011;56029;52.568;13.588;2022-08-20T09:06:33;45.07;;;27.27;;
68976;SDS011;56029;52.568;13.588;2022-08-20T09:09:02;44.25;;;26.05;;
68976;SDS011;56029;52.568;13.588;2022-08-20T09:11:29;46.53;;;27.90;;
68976;SDS011;56029;52.568;13.588;2022-08-20T09:13:55;44.65;;;25.75;;
68976;SDS011;56029;52.568;13.588;2022-08-20T09:16:21;42.42;;;24.73;;
68976;SDS011;56029;52.568;13.588;2022-08-20T09:18:48;45.90;;;26.73;;
68976;SDS011;56029;52.568;13.588;2022-08-20T09:21:15;44.28;;;26.10;;
68976;SDS011;56029;52.568;13.588;2022-08-20T09:23:41;43.45;;;25.48;;
68976;SDS011;56029;52.568;13.588;2022-08-20T09:26:07;42.05;;;25.63;;
68976;SDS011;56029;52.568;13.588;2022-08-20T09:28:33;41.73;;;25.10;;
68976;SDS011;56029;52.568;13.588;2022-08-20T09:30:58;42.58;;;25.30;;
68976;SDS011;56029;52.568;13.588;2022-08-20T09:33:24;41.97;;;25.13;;
68976;SDS011;56029;52.568;13.588;2022-08-20T09:35:50;40.70;;;25.20;;
68976;SDS011;56029;52.568;13.588;2022-08-20T09:38:15;40.23;;;24.97;;
68976;SDS011;56029;52.568;13.588;2022-08-20T09:40:41;39.97;;;24.85;;
68976;SDS011;56029;52.568;13.588;2022-08-20T09:43:07;39.77;;;24.03;;
68976;SDS011;56029;52.568;13.588;2022-08-20T09:45:33;40.40;;;24.40;;
68976;SDS011;56029;52.568;13.588;2022-08-20T09:48:00;39.80;;;25.23;;
68976;SDS011;56029;52.568;13.588;2022-08-20T09:50:27;39.53;;;24.80;;
68976;SDS011;56029;52.568;13.588;2022-08-20T09:52:55;39.55;;;23.42;;
68976;SDS011;56029;52.568;13.588;2022-08-20T09:55:55;39.60;;;24.77;;
68976;SDS011;56029;52.568;13.588;2022-08-20T10:01:11;37.38;;;23.80;;
68976;SDS011;56029;52.568;13.588;2022-08-20T10:03:43;39.58;;;24.42;;
68976;SDS011;56029;52.568;13.588;2022-08-20T10:06:12;36.65;;;22.77;;
68976;SDS011;56029;52.568;13.588;2022-08-20T10:08:39;37.37;;;23.10;;
68976;SDS011;56029;52.568;13.588;2022-08-20T10:11:05;35.70;;;24.13;;
68976;SDS011;56029;52.568;13.588;2022-08-20T10:13:30;43.22;;;24.63;;
68976;SDS011;56029;52.568;13.588;2022-08-20T10:15:56;38.67;;;23.83;;
68976;SDS011;56029;52.568;13.588;2022-08-20T10:18:22;39.53;;;23.30;;
68976;SDS011;56029;52.568;13.588;2022-08-20T10:20:47;38.05;;;24.02;;
68976;SDS011;56029;52.568;13.588;2022-08-20T10:23:13;38.53;;;23.43;;
68976;SDS011;56029;52.568;13.588;2022-08-20T10:25:38;35.65;;;22.80;;
68976;SDS011;56029;52.568;13.588;2022-08-20T10:28:06;36.30;;;23.80;;
68976;SDS011;56029;52.568;13.588;2022-08-20T10:30:32;37.17;;;22.50;;
68976;SDS011;56029;52.568;13.588;2022-08-20T10:32:57;35.63;;;22.35;;
68976;SDS011;56029;52.568;13.588;2022-08-20T10:35:23;37.60;;;23.00;;
68976;SDS011;56029;52.568;13.588;2022-08-20T10:37:48;35.13;;;21.63;;
68976;SDS011;56029;52.568;13.588;2022-08-20T10:40:14;32.63;;;22.00;;
68976;SDS011;56029;52.568;13.588;2022-08-20T10:42:41;34.42;;;21.90;;
68976;SDS011;56029;52.568;13.588;2022-08-20T10:45:08;31.45;;;20.05;;
68976;SDS011;56029;52.568;13.588;2022-08-20T10:47:35;30.25;;;20.42;;
68976;SDS011;56029;52.568;13.588;2022-08-20T10:50:01;29.40;;;18.97;;
68976;SDS011;56029;52.568;13.588;2022-08-20T10:52:29;34.00;;;19.05;;
68976;SDS011;56029;52.568;13.588;2022-08-20T10:54:55;31.73;;;19.73;;
68976;SDS011;56029;52.568;13.588;2022-08-20T10:57:22;30.83;;;19.67;;
68976;SDS011;56029;52.568;13.588;2022-08-20T10:59:50;30.92;;;19.75;;
68976;SDS011;56029;52.568;13.588;2022-08-20T11:02:17;26.03;;;17.80;;
68976;SDS011;56029;52.568;13.588;2022-08-20T11:04:44;25.75;;;17.38;;
68976;SDS011;56029;52.568;13.588;2022-08-20T11:09:37;24.92;;;16.33;;
68976;SDS011;56029;52.568;13.588;2022-08-20T11:12:03;25.80;;;16.43;;
68976;SDS011;56029;52.568;13.588;2022-08-20T11:14:28;22.83;;;15.70;;
68976;SDS011;56029;52.568;13.588;2022-08-20T11:16:54;23.30;;;14.97;;
68976;SDS011;56029;52.568;13.588;2022-08-20T11:19:20;22.90;;;14.13;;
68976;SDS011;56029;52.568;13.588;2022-08-20T11:21:45;19.48;;;13.48;;
68976;SDS011;56029;52.568;13.588;2022-08-20T11:24:11;20.70;;;13.73;;
68976;SDS011;56029;52.568;13.588;2022-08-20T11:26:36;23.10;;;14.57;;
68976;SDS011;56029;52.568;13.588;2022-08-20T11:29:03;20.90;;;14.23;;
68976;SDS011;56029;52.568;13.588;2022-08-20T11:31:29;20.95;;;14.52;;
68976;SDS011;56029;52.568;13.588;2022-08-20T11:33:55;20.52;;;14.68;;
68976;SDS011;56029;52.568;13.588;2022-08-20T11:36:20;20.63;;;13.77;;
68976;SDS011;56029;52.568;13.588;2022-08-20T11:38:51;19.10;;;13.75;;
68976;SDS011;56029;52.568;13.588;2022-08-20T11:41:16;18.77;;;13.75;;
68976;SDS011;56029;52.568;13.588;2022-08-20T11:43:42;18.37;;;13.67;;
68976;SDS011;56029;52.568;13.588;2022-08-20T11:46:08;18.95;;;12.93;;
68976;SDS011;56029;52.568;13.588;2022-08-20T11:48:33;17.83;;;12.53;;
68976;SDS011;56029;52.568;13.588;2022-08-20T11:50:59;19.90;;;11.43;;
68976;SDS011;56029;52.568;13.588;2022-08-20T11:53:25;16.27;;;11.05;;
68976;SDS011;56029;52.568;13.588;2022-08-20T11:55:51;14.25;;;10.32;;
68976;SDS011;56029;52.568;13.588;2022-08-20T11:58:16;13.47;;;9.60;;
68976;SDS011;56029;52.568;13.588;2022-08-20T12:00:42;13.88;;;9.43;;
68976;SDS011;56029;52.568;13.588;2022-08-20T12:03:08;15.63;;;9.60;;
68976;SDS011;56029;52.568;13.588;2022-08-20T12:05:34;12.60;;;9.02;;
68976;SDS011;56029;52.568;13.588;2022-08-20T12:08:00;13.07;;;8.90;;
68976;SDS011;56029;52.568;13.588;2022-08-20T12:10:26;12.73;;;9.15;;
68976;SDS011;56029;52.568;13.588;2022-08-20T12:12:52;12.93;;;8.60;;
68976;SDS011;56029;52.568;13.588;2022-08-20T12:15:18;11.85;;;8.48;;
68976;SDS011;56029;52.568;13.588;2022-08-20T12:17:44;12.10;;;8.60;;
68976;SDS011;56029;52.568;13.588;2022-08-20T12:20:10;11.75;;;7.82;;
68976;SDS011;56029;52.568;13.588;2022-08-20T12:22:37;10.70;;;7.27;;
68976;SDS011;56029;52.568;13.588;2022-08-20T12:25:03;11.65;;;8.07;;
68976;SDS011;56029;52.568;13.588;2022-08-20T12:27:30;10.90;;;8.05;;
68976;SDS011;56029;52.568;13.588;2022-08-20T12:29:59;11.88;;;7.20;;
68976;SDS011;56029;52.568;13.588;2022-08-20T12:32:27;10.38;;;6.72;;
68976;SDS011;56029;52.568;13.588;2022-08-20T12:34:53;11.37;;;7.53;;
68976;SDS011;56029;52.568;13.588;2022-08-20T12:37:21;9.90;;;7.13;;
68976;SDS011;56029;52.568;13.588;2022-08-20T12:39:49;9.77;;;6.60;;
68976;SDS011;56029;52.568;13.588;2022-08-20T12:42:16;10.93;;;6.82;;
68976;SDS011;56029;52.568;13.588;2022-08-20T12:44:42;9.98;;;7.28;;
68976;SDS011;56029;52.568;13.588;2022-08-20T12:47:13;9.80;;;7.23;;
68976;SDS011;56029;52.568;13.588;2022-08-20T12:49:42;10.05;;;6.88;;
68976;SDS011;56029;52.568;13.588;2022-08-20T12:52:10;10.10;;;6.70;;
68976;SDS011;56029;52.568;13.588;2022-08-20T12:54:36;9.45;;;6.50;;
68976;SDS011;56029;52.568;13.588;2022-08-20T12:57:02;9.83;;;6.83;;
68976;SDS011;56029;52.568;13.588;2022-08-20T12:59:27;9.55;;;6.75;;
68976;SDS011;56029;52.568;13.588;2022-08-20T13:01:53;10.30;;;6.73;;
68976;SDS011;56029;52.568;13.588;2022-08-20T13:04:19;9.45;;;6.35;;
68976;SDS011;56029;52.568;13.588;2022-08-20T13:06:45;10.23;;;6.70;;
68976;SDS011;56029;52.568;13.588;2022-08-20T13:09:11;8.67;;;6.50;;
68976;SDS011;56029;52.568;13.588;2022-08-20T13:11:37;10.65;;;6.95;;
68976;SDS011;56029;52.568;13.588;2022-08-20T13:14:03;9.88;;;6.72;;
68976;SDS011;56029;52.568;13.588;2022-08-20T13:16:29;9.27;;;6.53;;
68976;SDS011;56029;52.568;13.588;2022-08-20T13:18:54;9.53;;;6.73;;
68976;SDS011;56029;52.568;13.588;2022-08-20T13:21:20;10.13;;;6.97;;
68976;SDS011;56029;52.568;13.588;2022-08-20T13:23:45;11.67;;;7.20;;
68976;SDS011;56029;52.568;13.588;2022-08-20T13:26:11;10.63;;;7.50;;
68976;SDS011;56029;52.568;13.588;2022-08-20T13:28:37;12.43;;;8.30;;
68976;SDS011;56029;52.568;13.588;2022-08-20T13:31:02;13.03;;;8.30;;
68976;SDS011;56029;52.568;13.588;2022-08-20T13:33:28;13.15;;;8.60;;
68976;SDS011;56029;52.568;13.588;2022-08-20T13:35:54;12.43;;;8.43;;
68976;SDS011;56029;52.568;13.588;2022-08-20T13:38:20;13.80;;;9.07;;
68976;SDS011;56029;52.568;13.588;2022-08-20T13:40:46;12.68;;;8.98;;
68976;SDS011;56029;52.568;13.588;2022-08-20T13:43:12;14.43;;;9.20;;
68976;SDS011;56029;52.568;13.588;2022-08-20T13:45:38;13.27;;;9.17;;
68976;SDS011;56029;52.568;13.588;2022-08-20T13:48:04;14.05;;;9.35;;
68976;SDS011;56029;52.568;13.588;2022-08-20T13:50:31;13.25;;;9.05;;
68976;SDS011;56029;52.568;13.588;2022-08-20T13:52:56;14.03;;;9.60;;
68976;SDS011;56029;52.568;13.588;2022-08-20T13:55:23;13.55;;;8.82;;
68976;SDS011;56029;52.568;13.588;2022-08-20T13:57:49;13.63;;;9.60;;
68976;SDS011;56029;52.568;13.588;2022-08-20T14:00:18;13.15;;;9.40;;
68976;SDS011;56029;52.568;13.588;2022-08-20T14:02:45;14.52;;;9.75;;
68976;SDS011;56029;52.568;13.588;2022-08-20T14:05:11;14.52;;;9.85;;
68976;SDS011;56029;52.568;13.588;2022-08-20T14:07:37;14.23;;;9.70;;
68976;SDS011;56029;52.568;13.588;2022-08-20T14:10:07;15.30;;;10.63;;
68976;SDS011;56029;52.568;13.588;2022-08-20T14:12:36;14.55;;;10.50;;
68976;SDS011;56029;52.568;13.588;2022-08-20T14:15:02;15.87;;;10.63;;
68976;SDS011;56029;52.568;13.588;2022-08-20T14:17:29;14.13;;;9.98;;
68976;SDS011;56029;52.568;13.588;2022-08-20T14:19:58;14.75;;;10.38;;
68976;SDS011;56029;52.568;13.588;2022-08-20T14:22:25;13.95;;;9.88;;
68976;SDS011;56029;52.568;13.588;2022-08-20T14:24:51;15.20;;;10.80;;
68976;SDS011;56029;52.568;13.588;2022-08-20T14:27:18;17.67;;;11.30;;